Time;durP1;ratioP1;P1;durP2;ratioP2;P2;SDS_P1;SDS_P2;PMS_P1;PMS_P2;Temp;Humidity;BMP_temperature;BMP_pressure;BME280_temperature;BME280_humidity;BME280_pressure;Samples;Min_cycle;Max_cycle;Signal;HPM_P1;HPM_P2
2022/09/29 00:02:10;;;;;;;5.93;4.93;;;;;;;17.39;71.57;96199.72;5089744;28;20192;-79
2022/09/29 00:04:37;;;;;;;5.87;4.67;;;;;;;17.26;72.07;96188.63;5089254;28;20225;-77
2022/09/29 00:07:04;;;;;;;4.50;3.43;;;;;;;17.02;72.30;96188.94;5089280;28;20193;-79
2022/09/29 00:09:31;;;;;;;5.37;3.40;;;;;;;16.92;72.46;96190.66;5104514;28;20200;-78
2022/09/29 00:11:58;;;;;;;5.63;3.50;;;;;;;16.70;72.36;96158.59;5071743;28;20683;-77
2022/09/29 00:14:25;;;;;;;6.77;2.90;;;;;;;16.85;72.40;96178.25;5089992;28;20217;-75
2022/09/29 00:16:55;;;;;;;3.37;2.57;;;;;;;17.08;71.49;96164.84;5089096;28;20636;-78
2022/09/29 00:19:22;;;;;;;5.17;2.90;;;;;;;17.35;70.92;96169.50;5089186;28;20190;-78
2022/09/29 00:21:48;;;;;;;4.50;3.33;;;;;;;17.19;70.45;96168.38;5089172;28;20241;-77
2022/09/29 00:24:15;;;;;;;5.10;3.27;;;;;;;17.40;70.32;96179.59;5070647;28;20224;-78
2022/09/29 00:26:45;;;;;;;3.70;3.07;;;;;;;17.15;70.97;96177.41;5089024;28;20211;-77
2022/09/29 00:29:12;;;;;;;5.10;3.40;;;;;;;16.59;73.10;96182.22;5089229;28;20181;-79
2022/09/29 00:31:39;;;;;;;4.53;3.70;;;;;;;16.48;73.71;96177.00;5088706;28;20687;-79
2022/09/29 00:34:06;;;;;;;4.93;3.67;;;;;;;16.54;74.05;96166.06;5054030;28;20696;-77
2022/09/29 00:36:33;;;;;;;4.30;3.37;;;;;;;16.72;73.49;96162.75;5088674;28;20215;-78
2022/09/29 00:39:00;;;;;;;7.40;3.20;;;;;;;16.62;73.18;96137.50;5088172;28;20228;-79
2022/09/29 00:41:31;;;;;;;3.53;3.23;;;;;;;16.96;73.36;96167.72;5088355;28;20585;-79
2022/09/29 00:44:22;;;;;;;4.07;3.20;;;;;;;17.02;72.39;96167.19;5088414;28;20224;-79
2022/09/29 00:46:55;;;;;;;3.97;3.20;;;;;;;17.12;71.83;96178.53;5089003;28;20672;-80
2022/09/29 00:49:40;;;;;;;4.57;3.30;;;;;;;17.16;71.76;96171.25;5088734;28;20270;-78
2022/09/29 00:52:17;;;;;;;4.30;3.23;;;;;;;17.22;71.59;96173.31;5104019;28;20280;-78
2022/09/29 00:55:24;;;;;;;4.53;3.17;;;;;;;17.18;71.88;96172.78;5087753;28;20199;-79
2022/09/29 00:57:57;;;;;;;5.97;3.40;;;;;;;17.11;71.75;96155.94;5048433;28;20191;-79
2022/09/29 01:00:25;;;;;;;4.90;3.13;;;;;;;16.87;71.89;96174.56;5088336;28;20310;-79
2022/09/29 01:03:08;;;;;;;7.10;3.60;;;;;;;16.76;72.44;96179.00;5087978;28;20192;-78
2022/09/29 01:05:41;;;;;;;3.13;2.83;;;;;;;16.90;71.44;96173.44;5088105;28;20196;-79
2022/09/29 01:08:13;;;;;;;4.67;3.67;;;;;;;16.77;71.75;96184.13;5088176;28;20185;-79
2022/09/29 01:10:42;;;;;;;4.10;3.40;;;;;;;16.53;72.51;96190.53;5087986;28;20196;-77
2022/09/29 01:13:10;;;;;;;4.60;3.40;;;;;;;16.17;73.74;96191.78;5089178;28;20557;-78
2022/09/29 01:15:37;;;;;;;4.57;2.87;;;;;;;16.30;73.67;96195.84;5088146;28;20262;-77
2022/09/29 01:18:05;;;;;;;6.10;3.20;;;;;;;16.49;73.45;96194.34;5088286;28;20177;-79
2022/09/29 01:20:38;;;;;;;4.70;3.20;;;;;;;16.59;72.84;96197.91;5087842;28;20761;-77
2022/09/29 01:23:31;;;;;;;4.70;3.33;;;;;;;16.51;72.99;96214.22;5088076;28;20196;-78
2022/09/29 01:26:13;;;;;;;4.33;3.30;;;;;;;16.28;73.65;96202.16;5079198;28;20288;-79
2022/09/29 01:29:00;;;;;;;5.13;3.23;;;;;;;15.85;74.71;96180.47;5087496;28;20590;-77
2022/09/29 01:31:42;;;;;;;6.13;3.73;;;;;;;15.74;75.50;96194.41;5069353;28;20219;-79
2022/09/29 01:34:20;;;;;;;4.60;3.37;;;;;;;15.63;75.79;96196.19;5087938;28;20569;-78
2022/09/29 01:37:07;;;;;;;5.13;3.23;;;;;;;15.65;76.02;96208.16;5087412;28;20187;-79
2022/09/29 01:39:40;;;;;;;5.33;3.80;;;;;;;15.81;75.49;96198.16;5087339;28;20222;-78
2022/09/29 01:42:18;;;;;;;4.47;3.70;;;;;;;16.01;75.02;96205.22;5087280;28;20215;-78
2022/09/29 01:44:52;;;;;;;4.63;3.97;;;;;;;15.84;75.77;96197.09;5087327;28;20204;-77
2022/09/29 01:47:24;;;;;;;5.70;3.50;;;;;;;15.71;76.21;96196.41;5088215;28;20191;-78
2022/09/29 01:50:23;;;;;;;4.73;3.73;;;;;;;15.76;75.85;96200.31;5087126;28;20181;-78
2022/09/29 01:52:59;;;;;;;6.03;4.00;;;;;;;15.72;76.23;96196.31;5086761;28;20283;-76
2022/09/29 01:55:29;;;;;;;6.73;3.63;;;;;;;15.64;76.19;96192.63;5069043;28;20575;-79
2022/09/29 01:58:00;;;;;;;4.20;3.80;;;;;;;15.89;75.85;96200.19;5068997;28;20253;-79
2022/09/29 02:00:31;;;;;;;4.83;3.70;;;;;;;16.09;75.23;96191.56;5087364;28;20189;-79
2022/09/29 02:03:07;;;;;;;5.00;3.13;;;;;;;16.28;74.20;96195.16;5087100;28;20188;-79
2022/09/29 02:05:45;;;;;;;4.17;3.10;;;;;;;16.48;72.72;96195.31;5087182;28;20199;-77
2022/09/29 02:08:50;;;;;;;4.97;3.50;;;;;;;16.46;72.70;96199.84;5087015;28;20187;-78
2022/09/29 02:11:17;;;;;;;5.07;3.40;;;;;;;16.44;72.97;96204.34;4989116;28;20294;-77
2022/09/29 02:13:52;;;;;;;4.10;3.20;;;;;;;16.38;72.02;96195.25;5073713;28;20547;-80
2022/09/29 02:16:30;;;;;;;3.83;3.07;;;;;;;16.20;71.94;96191.50;5069014;28;20175;-79
2022/09/29 02:19:21;;;;;;;4.10;3.20;;;;;;;16.07;72.29;96206.53;5085845;28;20650;-78
2022/09/29 02:21:53;;;;;;;5.37;2.87;;;;;;;15.83;72.57;96196.25;5087082;28;20630;-78
2022/09/29 02:24:21;;;;;;;3.77;3.00;;;;;;;15.75;72.57;96203.03;5086810;28;20680;-78
2022/09/29 02:26:48;;;;;;;3.00;2.70;;;;;;;15.59;73.04;96207.81;5086941;28;20200;-79
2022/09/29 02:29:16;;;;;;;4.03;2.80;;;;;;;15.43;72.67;96187.34;5102380;28;20275;-79
2022/09/29 02:31:45;;;;;;;4.17;3.17;;;;;;;15.21;73.36;96203.78;5086908;28;20208;-78
2022/09/29 02:34:17;;;;;;;3.57;2.97;;;;;;;15.02;74.73;96208.75;5086854;28;20180;-77
2022/09/29 02:37:10;;;;;;;3.43;2.73;;;;;;;15.11;74.78;96209.81;5086506;28;20615;-78
2022/09/29 02:39:51;;;;;;;4.73;2.90;;;;;;;15.23;74.30;96211.47;5086936;28;20194;-77
2022/09/29 02:42:26;;;;;;;4.83;2.80;;;;;;;15.32;74.10;96201.19;5086330;28;20238;-79
2022/09/29 02:45:05;;;;;;;3.90;3.40;;;;;;;15.25;73.77;96202.59;5086577;28;20754;-78
2022/09/29 02:48:07;;;;;;;3.23;2.93;;;;;;;15.19;74.32;96204.84;5086753;28;20188;-79
2022/09/29 02:51:01;;;;;;;3.93;2.73;;;;;;;15.14;74.33;96202.59;5086762;28;20187;-78
2022/09/29 02:53:31;;;;;;;3.87;2.90;;;;;;;15.02;75.10;96207.94;5086763;28;20281;-78
2022/09/29 02:56:22;;;;;;;3.57;3.27;;;;;;;15.27;75.39;96212.94;5086739;28;20226;-78
2022/09/29 02:59:04;;;;;;;5.17;3.57;;;;;;;15.10;75.56;96195.97;5086836;28;20279;-78
2022/09/29 03:01:34;;;;;;;3.53;2.87;;;;;;;15.19;75.78;96218.72;5087408;28;20209;-77
2022/09/29 03:04:01;;;;;;;4.37;3.50;;;;;;;15.33;75.42;96218.47;5092656;28;20654;-77
2022/09/29 03:06:31;;;;;;;3.33;3.03;;;;;;;15.41;74.47;96212.69;5090743;28;20567;-77
2022/09/29 03:08:58;;;;;;;4.70;3.17;;;;;;;15.43;74.22;96221.25;5090128;28;20196;-78
2022/09/29 03:11:25;;;;;;;4.60;3.20;;;;;;;15.39;74.78;96215.38;5101758;28;20279;-78
2022/09/29 03:13:52;;;;;;;7.30;3.40;;;;;;;15.55;74.34;96215.06;5107907;28;20586;-80
2022/09/29 03:16:19;;;;;;;5.17;3.37;;;;;;;15.51;73.66;96225.84;5106662;28;20196;-77
2022/09/29 03:18:46;;;;;;;4.83;2.67;;;;;;;15.28;74.38;96219.78;5108996;28;20286;-79
2022/09/29 03:21:13;;;;;;;4.27;3.80;;;;;;;15.03;74.97;96212.19;5110861;28;20253;-79
2022/09/29 03:23:40;;;;;;;5.57;4.03;;;;;;;14.71;76.15;96219.00;5104851;27;20298;-78
2022/09/29 03:26:07;;;;;;;5.10;3.73;;;;;;;14.38;77.19;96223.19;5097862;28;20192;-78
2022/09/29 03:28:34;;;;;;;4.67;3.80;;;;;;;14.18;78.44;96226.38;5073616;28;20271;-78
2022/09/29 03:31:08;;;;;;;5.60;3.93;;;;;;;14.18;78.83;96220.38;5072694;28;20293;-79
2022/09/29 03:33:37;;;;;;;5.97;3.70;;;;;;;14.10;78.84;96222.66;5090135;28;20667;-78
2022/09/29 03:36:05;;;;;;;5.03;3.27;;;;;;;13.97;78.97;96233.16;5090470;28;20191;-79
2022/09/29 03:38:32;;;;;;;4.87;3.33;;;;;;;13.53;80.69;96231.09;5103243;28;20276;-78
2022/09/29 03:41:00;;;;;;;3.87;3.40;;;;;;;13.71;80.71;96236.78;5091515;28;20184;-78
2022/09/29 03:43:27;;;;;;;3.60;3.00;;;;;;;13.78;80.17;96233.66;5109501;28;20217;-78
2022/09/29 03:45:55;;;;;;;4.77;3.63;;;;;;;13.65;80.86;96232.84;5109572;28;20186;-78
2022/09/29 03:48:23;;;;;;;4.83;3.30;;;;;;;13.73;81.29;96219.28;5109986;28;20187;-78
2022/09/29 03:50:52;;;;;;;6.13;3.63;;;;;;;13.79;80.59;96226.66;5109439;28;20189;-78
2022/09/29 03:53:19;;;;;;;5.40;4.03;;;;;;;14.13;79.96;96233.72;5107533;28;20861;-79
2022/09/29 03:55:48;;;;;;;6.10;3.43;;;;;;;14.40;78.77;96234.34;5109766;28;20220;-79
2022/09/29 03:58:16;;;;;;;3.60;3.30;;;;;;;14.52;77.12;96220.41;5108967;28;20260;-79
2022/09/29 04:00:44;;;;;;;5.30;4.10;;;;;;;14.57;77.35;96228.69;5108918;28;20186;-78
2022/09/29 04:03:10;;;;;;;5.73;4.30;;;;;;;14.50;77.46;96217.06;5109616;28;20218;-79
2022/09/29 04:05:39;;;;;;;5.63;3.60;;;;;;;14.77;77.19;96214.19;5109856;28;20186;-80
2022/09/29 04:08:07;;;;;;;6.33;3.60;;;;;;;14.90;76.31;96208.88;5110454;28;20281;-77
2022/09/29 04:10:37;;;;;;;5.17;4.10;;;;;;;14.69;76.32;96214.72;5110839;28;20274;-78
2022/09/29 04:13:05;;;;;;;7.13;3.93;;;;;;;14.44;77.14;96201.91;5109438;28;20559;-78
2022/09/29 04:15:34;;;;;;;4.33;3.87;;;;;;;14.37;77.51;96216.31;5109404;28;20671;-79
2022/09/29 04:18:01;;;;;;;5.20;4.10;;;;;;;14.21;78.66;96200.13;5109256;28;20194;-77
2022/09/29 04:20:28;;;;;;;5.30;3.43;;;;;;;14.06;78.76;96201.22;5102620;28;20206;-78
2022/09/29 04:22:59;;;;;;;5.77;3.80;;;;;;;13.98;79.58;96218.34;5074878;28;20236;-77
2022/09/29 04:25:27;;;;;;;5.93;4.47;;;;;;;13.91;79.76;96210.16;5109542;28;20620;-77
2022/09/29 04:27:54;;;;;;;4.77;3.93;;;;;;;14.11;79.89;96225.19;5110012;28;20226;-78
2022/09/29 04:30:20;;;;;;;5.53;3.77;;;;;;;14.03;79.73;96216.25;5108279;28;20276;-77
2022/09/29 04:32:47;;;;;;;7.07;4.13;;;;;;;14.01;79.95;96207.72;5109159;28;20233;-76
2022/09/29 04:35:15;;;;;;;5.23;4.03;;;;;;;13.99;80.15;96207.84;5109138;28;20183;-76
2022/09/29 04:37:46;;;;;;;9.10;4.50;;;;;;;14.04;79.70;96200.53;5108893;28;20698;-75
2022/09/29 04:40:13;;;;;;;6.63;4.37;;;;;;;14.33;79.27;96214.88;5109249;28;20197;-76
2022/09/29 04:42:40;;;;;;;6.50;3.70;;;;;;;14.52;77.80;96215.19;5090292;28;20619;-77
2022/09/29 04:45:07;;;;;;;9.70;4.30;;;;;;;14.72;76.79;96225.88;5108897;28;20190;-77
2022/09/29 04:47:35;;;;;;;10.80;5.93;;;;;;;14.87;76.38;96217.75;5108379;28;20188;-76
2022/09/29 04:50:02;;;;;;;10.27;4.90;;;;;;;15.16;75.20;96239.00;5090488;28;20282;-77
2022/09/29 04:52:29;;;;;;;8.27;4.93;;;;;;;15.36;74.45;96240.88;5108741;28;20339;-77
2022/09/29 04:54:58;;;;;;;9.30;4.80;;;;;;;15.36;73.39;96246.13;5108688;28;20184;-77
2022/09/29 04:57:26;;;;;;;7.50;4.40;;;;;;;15.12;73.94;96233.19;5108445;28;20667;-77
2022/09/29 04:59:53;;;;;;;8.03;4.93;;;;;;;15.17;74.28;96258.91;5108378;28;20188;-76
2022/09/29 05:02:20;;;;;;;6.30;4.07;;;;;;;15.06;74.16;96244.09;5108735;28;20401;-76
2022/09/29 05:04:51;;;;;;;8.20;4.30;;;;;;;14.82;74.54;96221.66;5090478;28;20199;-76
2022/09/29 05:07:19;;;;;;;4.87;3.50;;;;;;;14.89;74.93;96249.75;5110311;28;20237;-76
2022/09/29 05:09:47;;;;;;;8.27;4.50;;;;;;;15.05;74.93;96270.25;5074256;28;20207;-76
2022/09/29 05:12:15;;;;;;;4.60;4.20;;;;;;;14.90;75.49;96264.44;5108662;28;20199;-75
2022/09/29 05:14:46;;;;;;;8.03;5.10;;;;;;;14.80;75.59;96254.78;5074749;28;20205;-77
2022/09/29 05:17:14;;;;;;;7.83;3.60;;;;;;;14.71;76.61;96261.56;5077183;28;20184;-75
2022/09/29 05:20:09;;;;;;;3.70;3.30;;;;;;;14.87;75.88;96272.50;5083987;28;20240;-79
2022/09/29 05:22:42;;;;;;;9.13;7.10;;;;;;;15.05;75.93;96278.09;5114640;28;20215;-76
2022/09/29 05:25:16;;;;;;;8.60;3.83;;;;;;;14.90;76.05;96274.03;5095386;28;20221;-77
2022/09/29 05:27:43;;;;;;;5.20;3.90;;;;;;;14.82;75.99;96263.38;5109438;28;20277;-75
2022/09/29 05:30:10;;;;;;;5.47;3.70;;;;;;;14.69;75.77;96227.75;5092036;28;20180;-75
2022/09/29 05:32:41;;;;;;;8.40;4.40;;;;;;;15.06;75.87;96240.66;5096559;28;20707;-77
2022/09/29 05:35:24;;;;;;;12.33;5.73;;;;;;;15.71;74.30;96257.28;5096429;28;20188;-77
2022/09/29 05:37:53;;;;;;;10.00;4.60;;;;;;;15.84;73.00;96244.94;5109299;28;20664;-75
2022/09/29 05:40:36;;;;;;;4.77;3.90;;;;;;;15.91;72.44;96227.00;5109284;28;20273;-76
2022/09/29 05:43:04;;;;;;;5.13;3.30;;;;;;;16.23;72.07;96252.19;5110046;28;20235;-76
2022/09/29 05:45:45;;;;;;;8.47;3.37;;;;;;;16.54;70.00;96223.59;5093079;28;20192;-77
2022/09/29 05:48:29;;;;;;;11.40;3.83;;;;;;;16.97;68.21;96237.38;5077648;28;20275;-75
2022/09/29 05:51:09;;;;;;;5.47;4.83;;;;;;;17.42;67.88;96258.81;5091185;28;20251;-75
2022/09/29 05:53:36;;;;;;;5.37;2.60;;;;;;;17.10;67.91;96230.16;5091685;28;20243;-76
2022/09/29 05:56:13;;;;;;;5.03;3.43;;;;;;;17.24;67.55;96224.56;5091883;28;20202;-75
2022/09/29 05:58:41;;;;;;;5.67;3.50;;;;;;;17.50;66.79;96233.66;5092063;28;20234;-75
2022/09/29 06:01:24;;;;;;;10.27;4.30;;;;;;;17.94;66.30;96261.25;5076290;28;20192;-76
2022/09/29 06:03:54;;;;;;;4.70;3.03;;;;;;;17.93;66.02;96267.44;5114003;28;20599;-76
2022/09/29 06:06:26;;;;;;;5.23;3.17;;;;;;;18.10;65.71;96255.47;5109675;28;20264;-77
2022/09/29 06:08:54;;;;;;;5.20;2.83;;;;;;;18.06;65.88;96246.25;5107754;28;20197;-76
2022/09/29 06:11:32;;;;;;;5.90;3.30;;;;;;;18.22;65.17;96257.03;5107952;28;20192;-77
2022/09/29 06:14:01;;;;;;;5.23;3.43;;;;;;;18.33;66.91;96254.28;5089912;28;20268;-78
2022/09/29 06:16:29;;;;;;;11.00;3.93;;;;;;;18.42;66.57;96233.31;5109213;28;20192;-78
2022/09/29 06:18:59;;;;;;;6.70;3.73;;;;;;;18.40;65.85;96242.31;5108126;28;20246;-77
2022/09/29 06:21:40;;;;;;;5.93;3.57;;;;;;;18.30;65.80;96225.75;5108152;28;20690;-76
2022/09/29 06:24:08;;;;;;;7.43;4.80;;;;;;;18.32;65.70;96213.31;5093621;28;20190;-75
2022/09/29 06:26:36;;;;;;;10.30;3.93;;;;;;;18.55;65.42;96226.03;5110177;28;20222;-75
2022/09/29 06:29:04;;;;;;;9.37;4.77;;;;;;;19.00;63.75;96251.69;5110403;28;20219;-77
2022/09/29 06:31:47;;;;;;;6.47;3.30;;;;;;;19.25;62.72;96248.44;5092413;28;20195;-75
2022/09/29 06:34:18;;;;;;;11.10;3.90;;;;;;;19.49;62.19;96247.00;5091515;28;20208;-77
2022/09/29 06:39:33;;;;;;;5.60;3.20;;;;;;;19.69;62.13;96254.81;5107253;28;20222;-76
2022/09/29 06:42:02;;;;;;;4.70;3.43;;;;;;;19.64;62.46;96238.69;5089269;28;20257;-79
2022/09/29 06:44:29;;;;;;;9.93;4.60;;;;;;;19.64;62.62;96234.22;5108964;28;20183;-76
2022/09/29 06:46:57;;;;;;;9.87;3.83;;;;;;;19.93;61.47;96236.72;5090073;28;20243;-78
2022/09/29 06:49:25;;;;;;;6.83;3.40;;;;;;;19.85;61.24;96236.63;5088813;28;20292;-76
2022/09/29 06:51:51;;;;;;;7.30;3.43;;;;;;;19.70;61.45;96224.97;5106905;28;20194;-77
2022/09/29 06:54:23;;;;;;;4.87;3.53;;;;;;;19.61;62.17;96244.22;5110254;28;20186;-78
2022/09/29 06:56:52;;;;;;;3.83;3.27;;;;;;;19.62;62.96;96246.69;5092963;28;20187;-77
2022/09/29 06:59:19;;;;;;;4.40;3.20;;;;;;;19.37;63.12;96214.03;5111000;28;20206;-76
2022/09/29 07:01:48;;;;;;;7.13;3.53;;;;;;;19.88;62.54;96252.94;5110567;28;20552;-77
2022/09/29 07:04:20;;;;;;;5.30;3.53;;;;;;;20.05;61.96;96244.25;5111070;28;20293;-76
2022/09/29 07:06:48;;;;;;;3.17;2.80;;;;;;;20.19;60.78;96238.56;5112326;28;20191;-78
2022/09/29 07:09:15;;;;;;;7.10;4.27;;;;;;;20.48;59.36;96248.88;5126765;27;20223;-78
2022/09/29 07:11:48;;;;;;;3.80;2.87;;;;;;;20.60;58.29;96252.91;5110989;28;20659;-77
2022/09/29 07:14:16;;;;;;;9.57;3.00;;;;;;;20.57;57.66;96257.63;5091719;28;20268;-77
2022/09/29 07:16:45;;;;;;;6.27;2.60;;;;;;;20.81;56.99;96256.03;5092490;28;20282;-77
2022/09/29 07:19:15;;;;;;;3.63;2.90;;;;;;;20.87;57.02;96265.16;5110008;28;20652;-77
2022/09/29 07:21:44;;;;;;;5.80;3.50;;;;;;;20.99;57.37;96259.50;5091691;28;20226;-77
2022/09/29 07:24:12;;;;;;;4.57;3.13;;;;;;;21.06;56.19;96262.41;5110225;28;20260;-78
2022/09/29 07:26:39;;;;;;;5.93;2.87;;;;;;;21.03;56.17;96263.53;5110136;28;20551;-77
2022/09/29 07:29:06;;;;;;;7.20;3.80;;;;;;;21.15;56.19;96258.81;5109914;28;20660;-78
2022/09/29 07:31:42;;;;;;;11.00;3.57;;;;;;;21.18;56.42;96248.00;5109918;28;20194;-77
2022/09/29 07:34:19;;;;;;;5.37;3.40;;;;;;;21.20;56.42;96255.72;5109976;28;20266;-77
2022/09/29 07:36:46;;;;;;;5.70;3.33;;;;;;;21.35;55.95;96254.19;5109693;28;20558;-77
2022/09/29 07:39:14;;;;;;;7.77;4.37;;;;;;;21.32;56.45;96250.06;5110078;28;20220;-77
2022/09/29 07:41:41;;;;;;;5.87;3.43;;;;;;;21.44;56.40;96255.88;5109672;28;20643;-78
2022/09/29 07:44:08;;;;;;;6.27;3.57;;;;;;;21.28;57.20;96253.97;5109561;28;20662;-77
2022/09/29 07:46:35;;;;;;;7.37;5.03;;;;;;;21.39;56.50;96252.91;5109871;28;20526;-77
2022/09/29 07:49:01;;;;;;;9.47;4.57;;;;;;;21.15;57.07;96261.47;5109503;28;20553;-78
2022/09/29 07:51:28;;;;;;;6.20;3.43;;;;;;;20.95;57.64;96265.22;5091907;28;20537;-78
2022/09/29 07:54:01;;;;;;;14.97;5.20;;;;;;;21.15;57.13;96277.25;5111625;28;20188;-78
2022/09/29 07:56:28;;;;;;;10.67;4.60;;;;;;;21.29;57.23;96276.69;5112123;28;20242;-78
2022/09/29 07:58:56;;;;;;;8.17;3.83;;;;;;;21.11;56.71;96277.72;5111360;28;20727;-78
2022/09/29 08:01:24;;;;;;;9.90;3.93;;;;;;;21.22;56.03;96270.41;5111085;28;20191;-79
2022/09/29 08:03:53;;;;;;;6.00;3.77;;;;;;;21.63;55.57;96282.03;5111398;28;20311;-79
2022/09/29 08:06:23;;;;;;;10.90;3.80;;;;;;;21.76;55.17;96275.31;5092042;28;20549;-78
2022/09/29 08:08:50;;;;;;;9.37;4.60;;;;;;;21.54;56.20;96275.03;5109148;28;20264;-78
2022/09/29 08:11:30;;;;;;;4.30;2.77;;;;;;;21.53;56.32;96270.78;5090405;28;20564;-78
2022/09/29 08:13:59;;;;;;;4.17;2.70;;;;;;;21.76;55.44;96270.06;5109455;28;20470;-79
2022/09/29 08:16:28;;;;;;;4.63;2.60;;;;;;;21.67;55.94;96280.72;5108891;28;20284;-78
2022/09/29 08:18:55;;;;;;;5.43;3.60;;;;;;;21.83;55.51;96286.94;5108966;28;20193;-78
2022/09/29 08:21:21;;;;;;;6.23;4.47;;;;;;;21.68;55.93;96261.28;5108530;28;20659;-77
2022/09/29 08:23:48;;;;;;;6.93;4.60;;;;;;;22.03;56.00;96294.63;5089808;28;20326;-79
2022/09/29 08:26:18;;;;;;;5.90;3.87;;;;;;;22.26;55.13;96299.16;5108575;28;20241;-77
2022/09/29 08:28:55;;;;;;;4.93;3.07;;;;;;;22.27;55.20;96300.81;5108354;28;20188;-77
2022/09/29 08:31:36;;;;;;;8.57;3.23;;;;;;;22.46;54.67;96302.34;5108256;28;20181;-78
2022/09/29 08:34:03;;;;;;;6.83;5.37;;;;;;;22.55;54.32;96293.47;5108389;28;20318;-78
2022/09/29 08:36:30;;;;;;;5.07;3.03;;;;;;;22.53;53.70;96293.63;5108293;28;20745;-78
2022/09/29 08:38:58;;;;;;;6.57;3.43;;;;;;;22.84;53.54;96290.41;5108553;28;20279;-79
2022/09/29 08:41:35;;;;;;;4.00;3.10;;;;;;;23.04;52.46;96273.25;5108397;28;20185;-78
2022/09/29 08:44:11;;;;;;;4.87;2.63;;;;;;;23.33;51.79;96294.72;5108500;28;20319;-78
2022/09/29 08:47:14;;;;;;;6.17;2.70;;;;;;;23.32;51.90;96299.22;5089640;28;20234;-78
2022/09/29 08:49:46;;;;;;;5.20;3.13;;;;;;;23.42;51.61;96294.56;5108231;28;20201;-77
2022/09/29 08:52:30;;;;;;;5.13;3.20;;;;;;;23.27;52.52;96284.78;5107082;28;20768;-76
2022/09/29 08:55:15;;;;;;;6.63;4.50;;;;;;;23.43;50.58;96290.13;5108050;28;20192;-78
2022/09/29 08:57:54;;;;;;;4.87;2.90;;;;;;;23.36;51.51;96294.41;5108179;28;20194;-78
2022/09/29 09:00:32;;;;;;;5.53;2.80;;;;;;;23.49;50.60;96286.81;5089985;28;20679;-78
2022/09/29 09:03:21;;;;;;;3.97;2.20;;;;;;;23.53;50.83;96293.41;5108269;28;20229;-78
2022/09/29 09:06:19;;;;;;;6.03;3.73;;;;;;;23.40;50.61;96287.78;5090161;28;20195;-78
2022/09/29 09:09:05;;;;;;;4.20;2.60;;;;;;;23.72;50.35;96279.78;5089700;28;20192;-78
2022/09/29 09:12:04;;;;;;;5.80;2.83;;;;;;;23.68;49.95;96252.03;5089418;28;20192;-77
2022/09/29 09:14:55;;;;;;;3.00;2.50;;;;;;;24.17;48.80;96280.00;5108335;28;20229;-78
2022/09/29 09:17:33;;;;;;;3.60;2.77;;;;;;;24.22;48.27;96282.13;5078386;28;20200;-78
2022/09/29 09:20:16;;;;;;;4.97;2.30;;;;;;;24.41;47.27;96286.16;5089213;28;20618;-78
2022/09/29 09:22:56;;;;;;;6.53;2.13;;;;;;;24.30;47.53;96295.31;5107983;28;20284;-77
2022/09/29 09:25:31;;;;;;;4.33;2.37;;;;;;;24.43;46.21;96292.13;5107463;28;20271;-78
2022/09/29 09:28:18;;;;;;;4.13;2.43;;;;;;;24.19;47.28;96295.72;5107812;28;20283;-77
2022/09/29 09:30:53;;;;;;;4.73;2.87;;;;;;;24.32;47.31;96298.63;5107367;28;20241;-78
2022/09/29 09:33:38;;;;;;;2.50;2.17;;;;;;;24.21;47.28;96296.38;5107358;28;20246;-78
2022/09/29 09:36:24;;;;;;;6.43;2.70;;;;;;;24.31;46.93;96290.84;5107557;28;20207;-77
2022/09/29 09:39:14;;;;;;;5.47;2.57;;;;;;;24.50;48.22;96293.91;5107587;28;20188;-78
2022/09/29 09:41:46;;;;;;;5.00;2.43;;;;;;;24.58;47.38;96293.03;5107521;28;20203;-78
2022/09/29 09:44:24;;;;;;;3.13;1.73;;;;;;;24.37;47.00;96275.13;5107618;28;20689;-77
2022/09/29 09:46:57;;;;;;;3.63;2.47;;;;;;;24.52;47.58;96283.97;5107260;28;20189;-77
2022/09/29 09:49:43;;;;;;;4.47;2.07;;;;;;;24.59;46.32;96276.97;5107296;28;20219;-77
2022/09/29 09:52:23;;;;;;;4.33;2.00;;;;;;;24.43;47.38;96277.06;5107307;28;20196;-77
2022/09/29 09:55:01;;;;;;;3.37;2.20;;;;;;;24.27;48.15;96273.66;5106809;28;20235;-77
2022/09/29 09:57:40;;;;;;;11.80;2.40;;;;;;;24.54;47.77;96275.84;5107213;28;20224;-78
2022/09/29 10:00:25;;;;;;;3.93;2.10;;;;;;;24.35;48.68;96270.97;5106816;28;20276;-79
2022/09/29 10:02:55;;;;;;;5.83;2.60;;;;;;;24.20;48.85;96271.72;5108062;28;20301;-77
2022/09/29 10:05:25;;;;;;;4.00;2.10;;;;;;;24.44;48.90;96259.38;5107393;28;20190;-77
2022/09/29 10:07:54;;;;;;;8.23;2.40;;;;;;;24.23;49.91;96265.25;5072945;28;20242;-76
2022/09/29 10:10:24;;;;;;;5.07;2.63;;;;;;;24.56;48.36;96258.78;5107234;28;20220;-77
2022/09/29 10:13:11;;;;;;;3.73;2.60;;;;;;;24.79;47.38;96249.03;5107057;28;20699;-78
2022/09/29 10:15:57;;;;;;;5.17;2.13;;;;;;;24.56;49.07;96263.25;5088724;28;20185;-77
2022/09/29 10:18:37;;;;;;;3.50;2.27;;;;;;;24.95;48.24;96254.25;5106714;28;20741;-77
2022/09/29 10:21:22;;;;;;;3.97;2.50;;;;;;;25.13;47.99;96245.13;5106731;28;20193;-78
2022/09/29 10:23:51;;;;;;;3.23;2.70;;;;;;;25.42;46.98;96246.06;5107116;28;20225;-77
2022/09/29 10:26:42;;;;;;;5.27;2.80;;;;;;;25.56;47.00;96258.50;5088267;28;20190;-77
2022/09/29 10:29:27;;;;;;;6.93;2.90;;;;;;;25.47;46.73;96246.31;5107326;28;20191;-79
2022/09/29 10:32:35;;;;;;;3.90;2.63;;;;;;;25.67;46.01;96239.50;5107694;28;20188;-78
2022/09/29 10:35:16;;;;;;;4.33;3.00;;;;;;;25.65;45.99;96230.91;5088335;28;20229;-78
2022/09/29 10:37:49;;;;;;;5.73;2.50;;;;;;;25.16;47.24;96245.63;5106780;28;20181;-77
2022/09/29 10:40:22;;;;;;;4.40;2.80;;;;;;;25.35;46.96;96239.00;5106555;28;20214;-77
2022/09/29 10:42:50;;;;;;;4.20;2.77;;;;;;;25.45;47.09;96240.38;5106099;28;20253;-77
2022/09/29 10:45:24;;;;;;;3.53;2.37;;;;;;;25.28;47.01;96238.06;5106392;28;20251;-79
2022/09/29 10:47:57;;;;;;;5.70;2.50;;;;;;;25.44;46.07;96240.56;5088013;28;20188;-77
2022/09/29 10:50:38;;;;;;;7.00;4.70;;;;;;;25.43;45.86;96231.78;5088284;28;20198;-77
2022/09/29 10:53:36;;;;;;;5.17;3.00;;;;;;;25.54;45.62;96243.78;5106383;28;20278;-83
2022/09/29 10:56:29;;;;;;;6.20;3.40;;;;;;;25.68;45.63;96241.13;5106606;28;20644;-79
2022/09/29 10:59:01;;;;;;;5.00;2.87;;;;;;;25.73;45.77;96233.47;5103892;28;20218;-77
2022/09/29 11:01:44;;;;;;;4.00;2.70;;;;;;;25.63;45.62;96237.41;5106585;28;20543;-77
2022/09/29 11:04:31;;;;;;;5.87;2.67;;;;;;;25.49;46.00;96233.72;5107689;28;20313;-77
2022/09/29 11:07:09;;;;;;;3.53;2.47;;;;;;;25.77;44.58;96231.25;5088647;28;20694;-77
2022/09/29 11:09:42;;;;;;;6.70;3.47;;;;;;;25.86;44.98;96230.19;5106223;28;20243;-78
2022/09/29 11:12:25;;;;;;;3.23;2.50;;;;;;;26.01;44.17;96230.16;5107133;28;20184;-77
2022/09/29 11:14:52;;;;;;;5.17;2.60;;;;;;;26.03;43.79;96220.19;5106631;28;20213;-78
2022/09/29 11:17:23;;;;;;;4.00;2.70;;;;;;;26.09;43.98;96220.28;5106407;28;20262;-78
2022/09/29 11:19:52;;;;;;;3.40;2.27;;;;;;;25.70;43.93;96196.69;5106378;28;20253;-78
2022/09/29 11:22:48;;;;;;;3.07;2.00;;;;;;;25.63;44.14;96219.66;5106090;28;20246;-77
2022/09/29 11:25:15;;;;;;;4.03;2.40;;;;;;;25.90;44.04;96227.97;5106274;28;20685;-79
2022/09/29 11:27:53;;;;;;;5.03;2.40;;;;;;;26.04;43.84;96220.00;5106617;28;20273;-78
2022/09/29 11:30:23;;;;;;;6.43;2.80;;;;;;;26.20;42.79;96216.31;5088013;28;20261;-78
2022/09/29 11:33:00;;;;;;;6.60;3.33;;;;;;;26.33;42.87;96213.81;5106101;28;20187;-78
2022/09/29 11:35:51;;;;;;;2.80;2.23;;;;;;;26.53;42.22;96204.22;5106022;28;20274;-77
2022/09/29 11:38:47;;;;;;;3.40;2.60;;;;;;;26.22;42.89;96212.47;5106428;28;20198;-76
2022/09/29 11:41:52;;;;;;;5.33;2.87;;;;;;;26.46;42.28;96206.81;5110185;28;20237;-77
2022/09/29 11:44:54;;;;;;;5.63;2.43;;;;;;;26.48;42.06;96207.44;5110450;28;20254;-77
2022/09/29 11:47:27;;;;;;;5.40;2.80;;;;;;;26.46;42.66;96200.69;5111268;28;20316;-76
2022/09/29 11:50:03;;;;;;;4.87;2.90;;;;;;;26.57;42.02;96208.16;5110171;28;20198;-77
2022/09/29 11:52:33;;;;;;;3.90;2.60;;;;;;;26.74;41.78;96212.25;5109493;28;20369;-76
2022/09/29 11:55:04;;;;;;;6.27;2.10;;;;;;;26.56;41.17;96203.88;5109773;28;20725;-77
2022/09/29 11:57:53;;;;;;;2.73;2.37;;;;;;;26.45;40.96;96196.38;5109163;28;20200;-78
2022/09/29 12:00:42;;;;;;;3.47;2.30;;;;;;;26.09;41.00;96198.25;5109650;28;20227;-78
2022/09/29 12:04:04;;;;;;;2.67;1.90;;;;;;;26.21;40.01;96204.72;5082316;28;20244;-78
2022/09/29 12:06:44;;;;;;;4.23;2.50;;;;;;;25.95;39.68;96205.16;5046627;28;20201;-78
2022/09/29 12:09:20;;;;;;;3.33;2.17;;;;;;;26.05;39.56;96199.59;5110048;28;20721;-77
2022/09/29 12:12:14;;;;;;;5.40;2.00;;;;;;;26.29;39.25;96201.94;5109665;28;20198;-77